HIO weather

Portland Hillsboro Airport
Portland, Oregon, United States

Public forecast

Using degrees Fahrenheit for public forecast. Weather courtesy of forecast.io.

METAR (pilot weather report)

Retrieved 2019/09/16 00:53 UTC (7 minutes ago):

KHIO 160053Z 19004KT 7SM -RA BKN011 OVC019 14/13 A2979 RMK AO2 RAB09 SLP085 P0018 T01440133 $

TAF (pilot weather forecast)

Forecast is more than 12 hours old.

Retrieved 2019/09/15 00:36 UTC (1 day ago):

TAF KHIO 152333Z 1600/1624 16006KT P6SM -SHRA SCT025 BKN035 OVC050 FM160300 16003KT P6SM VCSH SCT020 OVC040 FM161100 14002KT 6SM BR VCSH OVC025 FM161900 18007KT P6SM -SHRA SCT025 BKN040